ITY615 KBOS-LIRF
Flight info
| Callsign | ITY615 |
|---|---|
| Flight time | N/A |
| Altitude | 39000 |
| Route | LBSTA8 LBSTA DCT ALLEX N503B ALLRY/M084F400 DCT 51N050W 52N040W 53N030W 53N020W DCT LIMRI DCT XETBO/M085F410 DCT TAKAS/N0489F410 DCT ALUTA DCT KORER DCT LEMKA DCT BEBIX/N0491F400 DCT VALKU/N0491F410 DCT TIS DCT MEBAK DCT GIPNO DCT BALSI DCT OBIGO DCT ROBEX DCT LAPRI/N0492F400 DCT MOGBO/N0490F410 DCT ELB L146 ELKAP |
| Aircraft | A359/H-SDE2E3GHIJ3J4J5LM1ORWXY/LB1D1 |
Departure
| Time | 2026-05-06 21:39 |
|---|---|
| Airport | Boston Logan International Airport (KBOS) |
Arrival
| Time | N/A |
|---|---|
| Airport | Rome–Fiumicino Leonardo da Vinci International Airport (LIRF) |
| Time | Latitude | Longitude | Altitude | Speed | Heading |
|---|---|---|---|---|---|
| 2026-05-06 21:19 | 42.37083 | -71.01856 | 32 ft | 0 kts | 211° |
| 2026-05-06 21:29 | 42.37088 | -71.01852 | 32 ft | 4 kts | 211° |
| 2026-05-06 21:29 | 42.37111 | -71.01833 | 31 ft | 4 kts | 211° |
| 2026-05-06 21:30 | 42.37130 | -71.01819 | 31 ft | 4 kts | 194° |
| 2026-05-06 21:30 | 42.37153 | -71.01820 | 32 ft | 4 kts | 142° |
| 2026-05-06 21:30 | 42.37169 | -71.01845 | 32 ft | 4 kts | 123° |
| 2026-05-06 21:30 | 42.37182 | -71.01873 | 32 ft | 1 kts | 123° |
| 2026-05-06 21:33 | 42.37170 | -71.01847 | 32 ft | 11 kts | 123° |
| 2026-05-06 21:33 | 42.37137 | -71.01750 | 32 ft | 12 kts | 96° |
| 2026-05-06 21:33 | 42.37137 | -71.01641 | 32 ft | 11 kts | 108° |
| 2026-05-06 21:33 | 42.37082 | -71.01538 | 32 ft | 17 kts | 132° |
| 2026-05-06 21:34 | 42.37002 | -71.01435 | 32 ft | 16 kts | 134° |
| 2026-05-06 21:34 | 42.36923 | -71.01326 | 32 ft | 17 kts | 135° |
| 2026-05-06 21:34 | 42.36903 | -71.01245 | 32 ft | 14 kts | 77° |
| 2026-05-06 21:34 | 42.36986 | -71.01114 | 32 ft | 14 kts | 29° |
| 2026-05-06 21:35 | 42.37076 | -71.01050 | 32 ft | 15 kts | 26° |
| 2026-05-06 21:35 | 42.37173 | -71.00986 | 32 ft | 16 kts | 26° |
| 2026-05-06 21:35 | 42.37277 | -71.00922 | 32 ft | 17 kts | 22° |
| 2026-05-06 21:35 | 42.37349 | -71.00883 | 32 ft | 17 kts | 20° |
| 2026-05-06 21:36 | 42.37464 | -71.00828 | 32 ft | 18 kts | 19° |
| 2026-05-06 21:36 | 42.37584 | -71.00770 | 32 ft | 19 kts | 19° |
| 2026-05-06 21:36 | 42.37709 | -71.00710 | 32 ft | 20 kts | 19° |
| 2026-05-06 21:36 | 42.37794 | -71.00666 | 32 ft | 11 kts | 28° |
| 2026-05-06 21:37 | 42.37830 | -71.00581 | 32 ft | 11 kts | 87° |
| 2026-05-06 21:37 | 42.37799 | -71.00490 | 32 ft | 10 kts | 148° |
| 2026-05-06 21:37 | 42.37750 | -71.00496 | 32 ft | 0 kts | 197° |
| 2026-05-06 21:38 | 42.37746 | -71.00498 | 32 ft | 1 kts | 199° |
| 2026-05-06 21:38 | 42.37737 | -71.00502 | 32 ft | 6 kts | 199° |
| 2026-05-06 21:38 | 42.37433 | -71.00648 | 34 ft | 87 kts | 200° |
| 2026-05-06 21:38 | 42.36630 | -71.01039 | 33 ft | 159 kts | 200° |
| 2026-05-06 21:39 | 42.35468 | -71.01648 | 462 ft | 190 kts | 204° |
| 2026-05-06 21:39 | 42.34168 | -71.02059 | 1344 ft | 201 kts | 177° |
| 2026-05-06 21:39 | 42.32866 | -71.01242 | 2032 ft | 215 kts | 135° |
| 2026-05-06 21:39 | 42.32041 | -70.99559 | 2765 ft | 216 kts | 122° |
| 2026-05-06 21:40 | 42.31361 | -70.97721 | 3393 ft | 223 kts | 116° |
| 2026-05-06 21:40 | 42.31096 | -70.95609 | 3924 ft | 238 kts | 91° |
| 2026-05-06 21:40 | 42.31357 | -70.93288 | 4194 ft | 262 kts | 81° |
| 2026-05-06 21:40 | 42.31784 | -70.90798 | 4539 ft | 279 kts | 80° |
| 2026-05-06 21:41 | 42.32223 | -70.88210 | 5138 ft | 285 kts | 81° |
| 2026-05-06 21:41 | 42.32650 | -70.85575 | 5827 ft | 289 kts | 81° |
| 2026-05-06 21:41 | 42.33069 | -70.82894 | 6501 ft | 294 kts | 81° |
| 2026-05-06 21:41 | 42.33487 | -70.80163 | 7227 ft | 297 kts | 82° |
| 2026-05-06 21:42 | 42.34065 | -70.77463 | 7979 ft | 304 kts | 67° |
| 2026-05-06 21:42 | 42.35378 | -70.75219 | 8674 ft | 310 kts | 36° |
| 2026-05-06 21:42 | 42.37319 | -70.73957 | 9398 ft | 311 kts | 17° |
| 2026-05-06 21:42 | 42.39398 | -70.73092 | 10089 ft | 315 kts | 14° |
| 2026-05-06 21:43 | 42.41520 | -70.72249 | 10497 ft | 331 kts | 14° |
| 2026-05-06 21:43 | 42.43793 | -70.71330 | 10778 ft | 350 kts | 15° |
| 2026-05-06 21:43 | 42.46197 | -70.70382 | 11046 ft | 368 kts | 12° |
| 2026-05-06 21:43 | 42.48758 | -70.69620 | 11315 ft | 384 kts | 9° |
| 2026-05-06 21:44 | 42.51424 | -70.68880 | 11670 ft | 397 kts | 9° |
| 2026-05-06 21:44 | 42.54146 | -70.68101 | 12233 ft | 402 kts | 10° |
| 2026-05-06 21:44 | 42.56892 | -70.67297 | 12840 ft | 406 kts | 10° |
| 2026-05-06 21:44 | 42.59660 | -70.66476 | 13442 ft | 409 kts | 10° |
| 2026-05-06 21:45 | 42.62451 | -70.65642 | 14050 ft | 412 kts | 10° |
| 2026-05-06 21:45 | 42.65259 | -70.64798 | 14656 ft | 415 kts | 10° |
| 2026-05-06 21:45 | 42.68094 | -70.63946 | 15250 ft | 418 kts | 10° |
| 2026-05-06 21:45 | 42.70958 | -70.63230 | 15820 ft | 420 kts | 6° |
| 2026-05-06 21:46 | 42.73855 | -70.62611 | 16415 ft | 423 kts | 7° |
| 2026-05-06 21:46 | 42.76684 | -70.61612 | 16959 ft | 429 kts | 18° |
| 2026-05-06 21:46 | 42.79374 | -70.59787 | 17523 ft | 436 kts | 32° |
| 2026-05-06 21:46 | 42.81716 | -70.57147 | 18054 ft | 441 kts | 45° |
| 2026-05-06 21:47 | 42.83660 | -70.53892 | 18575 ft | 445 kts | 53° |
| 2026-05-06 21:47 | 42.85428 | -70.50412 | 19042 ft | 449 kts | 56° |
| 2026-05-06 21:47 | 42.87119 | -70.46811 | 19556 ft | 452 kts | 58° |
| 2026-05-06 21:47 | 42.88786 | -70.43155 | 20055 ft | 455 kts | 58° |
| 2026-05-06 21:48 | 42.90459 | -70.39476 | 20571 ft | 458 kts | 58° |
| 2026-05-06 21:48 | 42.92156 | -70.35777 | 21037 ft | 461 kts | 58° |
| 2026-05-06 21:48 | 42.93879 | -70.32061 | 21511 ft | 465 kts | 57° |
| 2026-05-06 21:48 | 42.95620 | -70.28333 | 21987 ft | 468 kts | 57° |
| 2026-05-06 21:49 | 42.97382 | -70.24578 | 22451 ft | 471 kts | 57° |
| 2026-05-06 21:49 | 42.99154 | -70.20804 | 22923 ft | 474 kts | 57° |
| 2026-05-06 21:49 | 43.00944 | -70.16994 | 23396 ft | 477 kts | 57° |
| 2026-05-06 21:49 | 43.02739 | -70.13166 | 23844 ft | 480 kts | 57° |
| 2026-05-06 21:50 | 43.04546 | -70.09305 | 24283 ft | 484 kts | 57° |
| 2026-05-06 21:50 | 43.06362 | -70.05418 | 24721 ft | 487 kts | 57° |
| 2026-05-06 21:50 | 43.08168 | -70.01546 | 25159 ft | 490 kts | 58° |
| 2026-05-06 21:50 | 43.10006 | -69.97600 | 25590 ft | 493 kts | 58° |
| 2026-05-06 21:51 | 43.11854 | -69.93628 | 26010 ft | 496 kts | 58° |
| 2026-05-06 21:51 | 43.13709 | -69.89633 | 26400 ft | 499 kts | 58° |
| 2026-05-06 21:51 | 43.15578 | -69.85605 | 26832 ft | 502 kts | 58° |
| 2026-05-06 21:51 | 43.17451 | -69.81559 | 27233 ft | 505 kts | 58° |
| 2026-05-06 21:52 | 43.19335 | -69.77486 | 27605 ft | 508 kts | 58° |
| 2026-05-06 21:52 | 43.21232 | -69.73382 | 27974 ft | 510 kts | 58° |
| 2026-05-06 21:52 | 43.23133 | -69.69261 | 28342 ft | 513 kts | 58° |
| 2026-05-06 21:52 | 43.25042 | -69.65115 | 28718 ft | 515 kts | 58° |
| 2026-05-06 21:53 | 43.26961 | -69.60944 | 29070 ft | 518 kts | 58° |
| 2026-05-06 21:53 | 43.28889 | -69.56747 | 29395 ft | 520 kts | 58° |
| 2026-05-06 21:53 | 43.30823 | -69.52530 | 29721 ft | 523 kts | 58° |
| 2026-05-06 21:53 | 43.32763 | -69.48295 | 30038 ft | 525 kts | 58° |
| 2026-05-06 21:54 | 43.34708 | -69.44042 | 30328 ft | 527 kts | 58° |
| 2026-05-06 21:54 | 43.36664 | -69.39760 | 30612 ft | 529 kts | 58° |
| 2026-05-06 21:54 | 43.38598 | -69.35518 | 30915 ft | 531 kts | 58° |
| 2026-05-06 21:54 | 43.40556 | -69.31219 | 31274 ft | 530 kts | 58° |
| 2026-05-06 21:55 | 43.42510 | -69.26922 | 31722 ft | 528 kts | 58° |
| 2026-05-06 21:55 | 43.44455 | -69.22640 | 32137 ft | 526 kts | 58° |
| 2026-05-06 21:55 | 43.46394 | -69.18362 | 32496 ft | 525 kts | 58° |
| 2026-05-06 21:55 | 43.48325 | -69.14097 | 32831 ft | 525 kts | 58° |
| 2026-05-06 21:56 | 43.50250 | -69.09838 | 33185 ft | 524 kts | 58° |
| 2026-05-06 21:56 | 43.52172 | -69.05580 | 33503 ft | 523 kts | 58° |
| 2026-05-06 21:56 | 43.54089 | -69.01326 | 33828 ft | 522 kts | 58° |
| 2026-05-06 21:56 | 43.56003 | -68.97073 | 34133 ft | 521 kts | 58° |
| 2026-05-06 21:57 | 43.57909 | -68.92833 | 34429 ft | 520 kts | 58° |
| 2026-05-06 21:57 | 43.59810 | -68.88595 | 34702 ft | 520 kts | 58° |
| 2026-05-06 21:57 | 43.61714 | -68.84347 | 34963 ft | 519 kts | 58° |
| 2026-05-06 21:57 | 43.63612 | -68.80104 | 35196 ft | 519 kts | 58° |
| 2026-05-06 21:58 | 43.65507 | -68.75864 | 35460 ft | 519 kts | 58° |
| 2026-05-06 21:58 | 43.67402 | -68.71617 | 35700 ft | 518 kts | 58° |
| 2026-05-06 21:58 | 43.69289 | -68.67381 | 35915 ft | 518 kts | 58° |
| 2026-05-06 21:58 | 43.71176 | -68.63139 | 36110 ft | 518 kts | 58° |
| 2026-05-06 21:59 | 43.73038 | -68.58946 | 36343 ft | 518 kts | 58° |
| 2026-05-06 21:59 | 43.74921 | -68.54701 | 36522 ft | 518 kts | 58° |
| 2026-05-06 21:59 | 43.76798 | -68.50463 | 36720 ft | 517 kts | 58° |
| 2026-05-06 21:59 | 43.78672 | -68.46224 | 36987 ft | 515 kts | 58° |
| 2026-05-06 22:00 | 43.80534 | -68.42009 | 37315 ft | 511 kts | 58° |
| 2026-05-06 22:00 | 43.82382 | -68.37815 | 37557 ft | 509 kts | 58° |
| 2026-05-06 22:00 | 43.84224 | -68.33633 | 37730 ft | 508 kts | 58° |
| 2026-05-06 22:00 | 43.86060 | -68.29458 | 37894 ft | 508 kts | 57° |
| 2026-05-06 22:01 | 43.87897 | -68.25275 | 38019 ft | 508 kts | 58° |
| 2026-05-06 22:01 | 43.89731 | -68.21090 | 38156 ft | 508 kts | 58° |
| 2026-05-06 22:01 | 43.91564 | -68.16905 | 38270 ft | 508 kts | 58° |
| 2026-05-06 22:01 | 43.93396 | -68.12713 | 38388 ft | 508 kts | 58° |
| 2026-05-06 22:02 | 43.95231 | -68.08511 | 38519 ft | 508 kts | 58° |
| 2026-05-06 22:02 | 43.97060 | -68.04314 | 38623 ft | 508 kts | 58° |
| 2026-05-06 22:02 | 43.98890 | -68.00109 | 38731 ft | 508 kts | 58° |
| 2026-05-06 22:02 | 44.00715 | -67.95911 | 38840 ft | 508 kts | 58° |
| 2026-05-06 22:03 | 44.04378 | -67.87465 | 38883 ft | 512 kts | 58° |
| 2026-05-06 22:03 | 44.08028 | -67.79024 | 38888 ft | 512 kts | 58° |
| 2026-05-06 22:04 | 44.11694 | -67.70520 | 38888 ft | 512 kts | 58° |
| 2026-05-06 22:04 | 44.15350 | -67.62014 | 38888 ft | 512 kts | 58° |
| 2026-05-06 22:05 | 44.18999 | -67.53500 | 38894 ft | 511 kts | 58° |
| 2026-05-06 22:05 | 44.22639 | -67.44980 | 38897 ft | 511 kts | 58° |
| 2026-05-06 22:06 | 44.26248 | -67.36510 | 38905 ft | 511 kts | 58° |
| 2026-05-06 22:06 | 44.29875 | -67.27972 | 38909 ft | 511 kts | 58° |
| 2026-05-06 22:07 | 44.33488 | -67.19439 | 38919 ft | 510 kts | 58° |
| 2026-05-06 22:07 | 44.37094 | -67.10900 | 38930 ft | 510 kts | 58° |
| 2026-05-06 22:08 | 44.40694 | -67.02356 | 38937 ft | 509 kts | 58° |
| 2026-05-06 22:08 | 44.44713 | -66.94212 | 38942 ft | 508 kts | 52° |
| 2026-05-06 22:09 | 44.48873 | -66.86226 | 38944 ft | 507 kts | 52° |
| 2026-05-06 22:09 | 44.53049 | -66.78266 | 38941 ft | 507 kts | 52° |
| 2026-05-06 22:10 | 44.57210 | -66.70301 | 38941 ft | 507 kts | 52° |
| 2026-05-06 22:10 | 44.61363 | -66.62313 | 38941 ft | 506 kts | 52° |
| 2026-05-06 22:11 | 44.65503 | -66.54320 | 38946 ft | 506 kts | 52° |
| 2026-05-06 22:11 | 44.69634 | -66.46324 | 38943 ft | 506 kts | 52° |
| 2026-05-06 22:12 | 44.73735 | -66.38363 | 38942 ft | 505 kts | 52° |
| 2026-05-06 22:12 | 44.77853 | -66.30348 | 38939 ft | 505 kts | 52° |
| 2026-05-06 22:13 | 44.81968 | -66.22317 | 38942 ft | 506 kts | 52° |
| 2026-05-06 22:13 | 44.86079 | -66.14269 | 38937 ft | 506 kts | 52° |
| 2026-05-06 22:14 | 44.90192 | -66.06197 | 38936 ft | 506 kts | 52° |
| 2026-05-06 22:14 | 44.94297 | -65.98118 | 38945 ft | 506 kts | 53° |
| 2026-05-06 22:15 | 44.98393 | -65.90031 | 38940 ft | 505 kts | 52° |
| 2026-05-06 22:15 | 45.02476 | -65.81950 | 38947 ft | 505 kts | 52° |
| 2026-05-06 22:16 | 45.06525 | -65.73912 | 38954 ft | 505 kts | 53° |
| 2026-05-06 22:16 | 45.10600 | -65.65802 | 38953 ft | 505 kts | 53° |
| 2026-05-06 22:17 | 45.14667 | -65.57683 | 38953 ft | 506 kts | 53° |
| 2026-05-06 22:17 | 45.18732 | -65.49545 | 38953 ft | 506 kts | 53° |
| 2026-05-06 22:18 | 45.22791 | -65.41394 | 38952 ft | 506 kts | 53° |
| 2026-05-06 22:18 | 45.26850 | -65.33222 | 38959 ft | 506 kts | 53° |
| 2026-05-06 22:19 | 45.30902 | -65.25041 | 38963 ft | 506 kts | 53° |
| 2026-05-06 22:19 | 45.34921 | -65.16902 | 38954 ft | 506 kts | 53° |
| 2026-05-06 22:20 | 45.38955 | -65.08708 | 38952 ft | 506 kts | 53° |
| 2026-05-06 22:20 | 45.42990 | -65.00490 | 38954 ft | 505 kts | 53° |
| 2026-05-06 22:21 | 45.47015 | -64.92270 | 38953 ft | 506 kts | 53° |
| 2026-05-06 22:21 | 45.51031 | -64.84042 | 38952 ft | 506 kts | 53° |
| 2026-05-06 22:22 | 45.55045 | -64.75796 | 38953 ft | 506 kts | 53° |
| 2026-05-06 22:22 | 45.59045 | -64.67553 | 38952 ft | 505 kts | 53° |
| 2026-05-06 22:23 | 45.62368 | -64.60689 | 38954 ft | 505 kts | 53° |
| 2026-05-06 22:23 | 45.66365 | -64.52410 | 38951 ft | 506 kts | 53° |
| 2026-05-06 22:24 | 45.70352 | -64.44126 | 38953 ft | 506 kts | 53° |
| 2026-05-06 22:24 | 45.74336 | -64.35825 | 38946 ft | 506 kts | 53° |
| 2026-05-06 22:25 | 45.78315 | -64.27510 | 38943 ft | 506 kts | 53° |
| 2026-05-06 22:25 | 45.82288 | -64.19183 | 38941 ft | 506 kts | 53° |
| 2026-05-06 22:26 | 45.86230 | -64.10895 | 38939 ft | 506 kts | 53° |
| 2026-05-06 22:26 | 45.90198 | -64.02529 | 38950 ft | 507 kts | 53° |
| 2026-05-06 22:27 | 45.94159 | -63.94154 | 38954 ft | 507 kts | 53° |